Observations for YEOVILTON NAVY, United Kingdom (EGDY)

EGDY 112150Z 10007KT 9999 FEW020 BKN140 08/06 Q1020 BLU NOSIG   
EGDY 112050Z 12006KT 9999 FEW030 BKN140 09/06 Q1020 BLU NOSIG   
EGDY 111950Z 13008KT 9999 FEW030 BKN140 09/06 Q1020 BLU NOSIG   
EGDY 111850Z 13006KT 9999 FEW030 BKN140 08/06 Q1020 BLU NOSIG   
EGDY 111750Z 13007KT 9999 FEW035 OVC140 09/06 Q1020 BLU NOSIG   
EGDY 111650Z 16007KT 9999 FEW035 OVC140 09/06 Q1021 BLU NOSIG   
EGDY 111550Z 15008KT 9999 FEW035 BKN140 09/07 Q1021 BLU NOSIG   
EGDY 111450Z 14009KT 9999 FEW022 SCT030 BKN040 10/08 Q1021 BLU TEMPO 9999 NSW OVC020 WHT
EGDY 111350Z 15007KT 9999 FEW015 SCT022 OVC030 10/08 Q1022 WHT BECMG 9999 NSW BKN025 BLU
EGDY 111250Z 14008KT 9999 FEW015 BKN030 10/08 Q1022 REDZ BLU TEMPO 7000 -RA BKN022 WHT  
EGDY 111150Z 14007KT 9999 BKN035 10/08 Q1023 BLU TEMPO 9999 NSW BKN022 WHT  
EGDY 111050Z 12007KT 7000 HZ BKN030 09/08 Q1024 WHT BECMG 9999 BKN025 BLU   
EGDY 110950Z 12007KT 7000 BR FEW012 BKN031 08/07 Q1024 WHT BECMG 5000 -DZ SCT012 GRN
EGDY 110921Z 13007KT 7000 BR FEW022 BKN032 08/07 Q1024 WHT NOSIG
EGDY 110921Z 13007KT 7000 BR FEW022 BKN032 08/07 Q1024 WHT NOSIG
EGDY 110850Z 13008KT 9999 BKN031 08/07 Q1024 BLU BECMG 9999 BKN 022 
EGDY 110750Z 12004KT 9999 BKN032 06/06 Q1024 BLU NOSIG  
EGDY 110650Z 05003KT 9999 BKN032 04/04 Q1024 BLU NOSIG  
EGDY 110550Z 00000KT 9999 BKN035 04/04 Q1025 BLU
EGDY 110450Z 06002KT 9999 BKN035 03/03 Q1025 BLU
EGDY 110350Z 07002KT 8000 BR SCT035 02/02 Q1025 BLU 
EGDY 110250Z 10003KT 8000 BR FEW030 02/02 Q1026 BLU 
EGDY 110150Z 11001KT 8000 BR FEW025 02/02 Q1026 BLU 
EGDY 110050Z 11002KT 8000 BR SKC 03/03 Q1027 BLU
EGDY 102350Z 00000KT 8000 BR SKC 04/03 Q1027 BLU
EGDY 102250Z 10001KT 9999 FEW035 04/03 Q1028 BLU NOSIG  
EGDY 102150Z 14002KT 9999 FEW035 06/05 Q1028 BLU NOSIG